Airports

 

 

Airport Name Latest METAR Visual Conditions
Atlanta International (ATL) KATL 231952Z 26010KT 10SM CLR 10/M04 A2999 RMK AO2 SLP160 T01001044 VFR
Asheville Regional (AVL) KAVL 231954Z 34006KT 10SM CLR 07/M08 A2985 RMK AO2 SLP115 T00721083 VFR
Birmingham International (BHM) KBHM 231953Z 24008KT 200V290 10SM CLR 10/M06 A3007 RMK AO2 SLP185 T01001061 VFR
Chattanooga (CHA) KCHA 231953Z VRB05KT 10SM FEW150 FEW250 09/M06 A2998 RMK AO2 SLP154 T00891061 $ VFR
Charlotte International (CLT) KCLT 231952Z 24008KT 10SM SCT200 SCT250 10/M05 A2988 RMK AO2 SLP121 T01001050 VFR
Greensboro Piedmont-Triad (GSO) KGSO 231954Z 25008KT 10SM BKN240 07/M08 A2985 RMK AO2 SLP112 T00721078 VFR
Greenville-Spartanburg International (GSP) KGSP 231953Z 23011KT 10SM CLR 11/M04 A2988 RMK AO2 SLP122 T01061039 VFR
Middle Georgia Regional Airport (MCN) KMCN 231953Z 30009G17KT 10SM CLR 12/M09 A3001 RMK AO2 SLP162 T01221094 VFR
Tri-Cities Airport (TRI) KTRI 231953Z 22013G19KT 10SM BKN190 06/M07 A2988 RMK AO2 SLP120 T00561067 VFR
Knoxville Regional (TYS) KTYS 231953Z 22016G23KT 10SM CLR 07/M05 A2993 RMK AO2 SLP139 T00671050 VFR